sensor_id;sensor_type;location;lat;lon;timestamp;P1;durP1;ratioP1;P2;durP2;ratioP2
23300;SDS011;11819;51.394;12.340;2023-08-06T00:00:07;9.15;;;7.78;;
23300;SDS011;11819;51.394;12.340;2023-08-06T00:02:34;8.85;;;7.32;;
23300;SDS011;11819;51.394;12.340;2023-08-06T00:05:00;9.77;;;8.15;;
23300;SDS011;11819;51.394;12.340;2023-08-06T00:07:25;10.02;;;7.95;;
23300;SDS011;11819;51.394;12.340;2023-08-06T00:09:51;11.00;;;8.52;;
23300;SDS011;11819;51.394;12.340;2023-08-06T00:12:17;11.63;;;8.07;;
23300;SDS011;11819;51.394;12.340;2023-08-06T00:14:43;10.65;;;8.25;;
23300;SDS011;11819;51.394;12.340;2023-08-06T00:17:09;12.15;;;8.15;;
23300;SDS011;11819;51.394;12.340;2023-08-06T00:19:34;11.32;;;7.75;;
23300;SDS011;11819;51.394;12.340;2023-08-06T00:22:00;10.18;;;7.88;;
23300;SDS011;11819;51.394;12.340;2023-08-06T00:24:27;10.57;;;7.55;;
23300;SDS011;11819;51.394;12.340;2023-08-06T00:26:52;9.55;;;8.32;;
23300;SDS011;11819;51.394;12.340;2023-08-06T00:29:19;9.93;;;7.85;;
23300;SDS011;11819;51.394;12.340;2023-08-06T00:31:45;10.80;;;8.20;;
23300;SDS011;11819;51.394;12.340;2023-08-06T00:34:10;10.70;;;8.23;;
23300;SDS011;11819;51.394;12.340;2023-08-06T00:36:36;9.48;;;8.35;;
23300;SDS011;11819;51.394;12.340;2023-08-06T00:39:02;10.38;;;8.43;;
23300;SDS011;11819;51.394;12.340;2023-08-06T00:41:27;10.48;;;8.32;;
23300;SDS011;11819;51.394;12.340;2023-08-06T00:43:53;10.98;;;7.55;;
23300;SDS011;11819;51.394;12.340;2023-08-06T00:46:19;10.73;;;7.80;;
23300;SDS011;11819;51.394;12.340;2023-08-06T00:48:45;10.68;;;8.52;;
23300;SDS011;11819;51.394;12.340;2023-08-06T00:51:12;11.32;;;8.77;;
23300;SDS011;11819;51.394;12.340;2023-08-06T00:53:38;9.57;;;7.80;;
23300;SDS011;11819;51.394;12.340;2023-08-06T00:56:04;10.65;;;8.32;;
23300;SDS011;11819;51.394;12.340;2023-08-06T00:58:32;9.93;;;8.45;;
23300;SDS011;11819;51.394;12.340;2023-08-06T01:00:58;11.20;;;8.35;;
23300;SDS011;11819;51.394;12.340;2023-08-06T01:03:24;9.52;;;7.43;;
23300;SDS011;11819;51.394;12.340;2023-08-06T01:05:50;9.98;;;7.47;;
23300;SDS011;11819;51.394;12.340;2023-08-06T01:08:19;11.65;;;8.32;;
23300;SDS011;11819;51.394;12.340;2023-08-06T01:13:49;10.23;;;8.50;;
23300;SDS011;11819;51.394;12.340;2023-08-06T01:16:20;11.45;;;9.07;;
23300;SDS011;11819;51.394;12.340;2023-08-06T01:18:49;13.75;;;8.80;;
23300;SDS011;11819;51.394;12.340;2023-08-06T01:21:16;12.18;;;8.38;;
23300;SDS011;11819;51.394;12.340;2023-08-06T01:23:42;11.95;;;8.43;;
23300;SDS011;11819;51.394;12.340;2023-08-06T01:28:48;10.60;;;8.70;;
23300;SDS011;11819;51.394;12.340;2023-08-06T01:31:38;11.25;;;8.57;;
23300;SDS011;11819;51.394;12.340;2023-08-06T01:34:07;12.80;;;7.78;;
23300;SDS011;11819;51.394;12.340;2023-08-06T01:36:38;11.80;;;8.32;;
23300;SDS011;11819;51.394;12.340;2023-08-06T01:39:05;10.65;;;8.52;;
23300;SDS011;11819;51.394;12.340;2023-08-06T01:41:31;11.05;;;8.90;;
23300;SDS011;11819;51.394;12.340;2023-08-06T01:43:56;12.82;;;9.75;;
23300;SDS011;11819;51.394;12.340;2023-08-06T01:46:22;11.40;;;8.40;;
23300;SDS011;11819;51.394;12.340;2023-08-06T01:48:50;11.95;;;9.43;;
23300;SDS011;11819;51.394;12.340;2023-08-06T01:51:16;11.02;;;9.32;;
23300;SDS011;11819;51.394;12.340;2023-08-06T01:53:41;11.23;;;9.05;;
23300;SDS011;11819;51.394;12.340;2023-08-06T01:56:07;10.95;;;8.90;;
23300;SDS011;11819;51.394;12.340;2023-08-06T01:58:34;10.30;;;9.20;;
23300;SDS011;11819;51.394;12.340;2023-08-06T02:01:00;11.00;;;9.10;;
23300;SDS011;11819;51.394;12.340;2023-08-06T02:03:26;13.10;;;9.57;;
23300;SDS011;11819;51.394;12.340;2023-08-06T02:05:52;11.95;;;9.15;;
23300;SDS011;11819;51.394;12.340;2023-08-06T02:08:18;13.10;;;9.50;;
23300;SDS011;11819;51.394;12.340;2023-08-06T02:10:45;12.95;;;9.60;;
23300;SDS011;11819;51.394;12.340;2023-08-06T02:13:11;14.70;;;9.15;;
23300;SDS011;11819;51.394;12.340;2023-08-06T02:15:43;10.93;;;9.23;;
23300;SDS011;11819;51.394;12.340;2023-08-06T02:18:10;10.98;;;8.93;;
23300;SDS011;11819;51.394;12.340;2023-08-06T02:20:35;11.15;;;8.98;;
23300;SDS011;11819;51.394;12.340;2023-08-06T02:23:01;11.02;;;9.25;;
23300;SDS011;11819;51.394;12.340;2023-08-06T02:25:27;14.73;;;9.93;;
23300;SDS011;11819;51.394;12.340;2023-08-06T02:27:52;11.40;;;9.40;;
23300;SDS011;11819;51.394;12.340;2023-08-06T02:30:18;12.65;;;8.88;;
23300;SDS011;11819;51.394;12.340;2023-08-06T02:32:44;11.88;;;10.23;;
23300;SDS011;11819;51.394;12.340;2023-08-06T02:35:09;13.55;;;9.70;;
23300;SDS011;11819;51.394;12.340;2023-08-06T02:37:35;12.35;;;9.82;;
23300;SDS011;11819;51.394;12.340;2023-08-06T02:40:01;12.95;;;9.55;;
23300;SDS011;11819;51.394;12.340;2023-08-06T02:42:27;12.70;;;9.50;;
23300;SDS011;11819;51.394;12.340;2023-08-06T02:44:54;13.25;;;9.48;;
23300;SDS011;11819;51.394;12.340;2023-08-06T02:47:20;11.88;;;10.23;;
23300;SDS011;11819;51.394;12.340;2023-08-06T02:49:46;15.63;;;10.32;;
23300;SDS011;11819;51.394;12.340;2023-08-06T02:52:12;13.13;;;9.75;;
23300;SDS011;11819;51.394;12.340;2023-08-06T02:54:38;13.18;;;10.02;;
23300;SDS011;11819;51.394;12.340;2023-08-06T02:57:04;13.25;;;10.43;;
23300;SDS011;11819;51.394;12.340;2023-08-06T02:59:32;12.80;;;9.57;;
23300;SDS011;11819;51.394;12.340;2023-08-06T03:02:12;11.50;;;9.52;;
23300;SDS011;11819;51.394;12.340;2023-08-06T03:05:13;13.18;;;9.88;;
23300;SDS011;11819;51.394;12.340;2023-08-06T03:07:43;12.90;;;9.10;;
23300;SDS011;11819;51.394;12.340;2023-08-06T03:10:16;12.68;;;9.25;;
23300;SDS011;11819;51.394;12.340;2023-08-06T03:12:43;14.65;;;9.65;;
23300;SDS011;11819;51.394;12.340;2023-08-06T03:15:09;11.73;;;10.30;;
23300;SDS011;11819;51.394;12.340;2023-08-06T03:17:35;12.93;;;9.80;;
23300;SDS011;11819;51.394;12.340;2023-08-06T03:20:03;12.73;;;9.73;;
23300;SDS011;11819;51.394;12.340;2023-08-06T03:22:31;11.07;;;9.18;;
23300;SDS011;11819;51.394;12.340;2023-08-06T03:24:57;13.35;;;9.55;;
23300;SDS011;11819;51.394;12.340;2023-08-06T03:27:24;11.02;;;9.18;;
23300;SDS011;11819;51.394;12.340;2023-08-06T03:29:51;12.20;;;9.52;;
23300;SDS011;11819;51.394;12.340;2023-08-06T03:32:19;13.52;;;10.25;;
23300;SDS011;11819;51.394;12.340;2023-08-06T03:34:46;12.73;;;10.75;;
23300;SDS011;11819;51.394;12.340;2023-08-06T03:37:13;11.93;;;8.73;;
23300;SDS011;11819;51.394;12.340;2023-08-06T03:39:38;13.82;;;10.07;;
23300;SDS011;11819;51.394;12.340;2023-08-06T03:42:04;13.13;;;9.88;;
23300;SDS011;11819;51.394;12.340;2023-08-06T03:44:30;17.90;;;10.50;;
23300;SDS011;11819;51.394;12.340;2023-08-06T03:46:56;13.38;;;9.52;;
23300;SDS011;11819;51.394;12.340;2023-08-06T03:49:22;13.20;;;9.82;;
23300;SDS011;11819;51.394;12.340;2023-08-06T03:51:48;14.95;;;11.35;;
23300;SDS011;11819;51.394;12.340;2023-08-06T03:54:13;13.65;;;10.20;;
23300;SDS011;11819;51.394;12.340;2023-08-06T03:56:39;11.90;;;9.82;;
23300;SDS011;11819;51.394;12.340;2023-08-06T03:59:06;13.10;;;10.80;;
23300;SDS011;11819;51.394;12.340;2023-08-06T04:01:32;15.10;;;10.32;;
23300;SDS011;11819;51.394;12.340;2023-08-06T04:03:58;13.98;;;10.40;;
23300;SDS011;11819;51.394;12.340;2023-08-06T04:06:23;13.57;;;10.25;;
23300;SDS011;11819;51.394;12.340;2023-08-06T04:08:49;12.75;;;10.10;;
23300;SDS011;11819;51.394;12.340;2023-08-06T04:11:14;12.52;;;10.25;;
23300;SDS011;11819;51.394;12.340;2023-08-06T04:13:44;13.93;;;11.00;;
23300;SDS011;11819;51.394;12.340;2023-08-06T04:16:10;15.02;;;10.80;;
23300;SDS011;11819;51.394;12.340;2023-08-06T04:18:36;14.90;;;10.27;;
23300;SDS011;11819;51.394;12.340;2023-08-06T04:21:02;13.50;;;10.43;;
23300;SDS011;11819;51.394;12.340;2023-08-06T04:23:27;14.65;;;10.57;;
23300;SDS011;11819;51.394;12.340;2023-08-06T04:25:59;12.65;;;10.45;;
23300;SDS011;11819;51.394;12.340;2023-08-06T04:28:29;14.48;;;11.32;;
23300;SDS011;11819;51.394;12.340;2023-08-06T04:30:56;12.90;;;10.52;;
23300;SDS011;11819;51.394;12.340;2023-08-06T04:33:23;12.15;;;10.52;;
23300;SDS011;11819;51.394;12.340;2023-08-06T04:35:53;13.50;;;10.93;;
23300;SDS011;11819;51.394;12.340;2023-08-06T04:38:25;17.45;;;11.75;;
23300;SDS011;11819;51.394;12.340;2023-08-06T04:40:51;14.32;;;11.73;;
23300;SDS011;11819;51.394;12.340;2023-08-06T04:43:18;13.93;;;11.00;;
23300;SDS011;11819;51.394;12.340;2023-08-06T04:45:51;12.55;;;11.20;;
23300;SDS011;11819;51.394;12.340;2023-08-06T04:48:18;12.45;;;11.02;;
23300;SDS011;11819;51.394;12.340;2023-08-06T04:50:44;13.30;;;11.52;;
23300;SDS011;11819;51.394;12.340;2023-08-06T04:53:12;12.98;;;11.40;;
23300;SDS011;11819;51.394;12.340;2023-08-06T04:55:37;14.32;;;11.60;;
23300;SDS011;11819;51.394;12.340;2023-08-06T04:58:03;14.80;;;12.23;;
23300;SDS011;11819;51.394;12.340;2023-08-06T05:00:29;16.33;;;10.88;;
23300;SDS011;11819;51.394;12.340;2023-08-06T05:02:55;13.32;;;10.27;;
23300;SDS011;11819;51.394;12.340;2023-08-06T05:05:20;13.50;;;10.50;;
23300;SDS011;11819;51.394;12.340;2023-08-06T05:07:48;16.63;;;10.55;;
23300;SDS011;11819;51.394;12.340;2023-08-06T05:10:14;11.93;;;10.02;;
23300;SDS011;11819;51.394;12.340;2023-08-06T05:12:40;14.02;;;9.25;;
23300;SDS011;11819;51.394;12.340;2023-08-06T05:15:06;11.20;;;8.80;;
23300;SDS011;11819;51.394;12.340;2023-08-06T05:17:32;11.10;;;8.82;;
23300;SDS011;11819;51.394;12.340;2023-08-06T05:19:58;12.40;;;9.35;;
23300;SDS011;11819;51.394;12.340;2023-08-06T05:22:23;11.30;;;8.70;;
23300;SDS011;11819;51.394;12.340;2023-08-06T05:24:49;13.05;;;8.30;;
23300;SDS011;11819;51.394;12.340;2023-08-06T05:27:14;9.85;;;7.63;;
23300;SDS011;11819;51.394;12.340;2023-08-06T05:29:40;9.77;;;7.43;;
23300;SDS011;11819;51.394;12.340;2023-08-06T05:32:06;8.52;;;6.57;;
23300;SDS011;11819;51.394;12.340;2023-08-06T05:34:32;11.68;;;7.13;;
23300;SDS011;11819;51.394;12.340;2023-08-06T05:36:57;9.75;;;6.63;;
23300;SDS011;11819;51.394;12.340;2023-08-06T05:39:23;9.70;;;7.30;;
23300;SDS011;11819;51.394;12.340;2023-08-06T05:41:49;9.25;;;7.40;;
23300;SDS011;11819;51.394;12.340;2023-08-06T05:44:15;9.27;;;7.90;;
23300;SDS011;11819;51.394;12.340;2023-08-06T05:46:41;9.68;;;7.63;;
23300;SDS011;11819;51.394;12.340;2023-08-06T05:49:06;9.00;;;6.78;;
23300;SDS011;11819;51.394;12.340;2023-08-06T05:51:32;9.18;;;7.53;;
23300;SDS011;11819;51.394;12.340;2023-08-06T05:53:58;12.18;;;7.78;;
23300;SDS011;11819;51.394;12.340;2023-08-06T05:56:23;9.70;;;7.93;;
23300;SDS011;11819;51.394;12.340;2023-08-06T05:58:49;10.07;;;7.43;;
23300;SDS011;11819;51.394;12.340;2023-08-06T06:01:18;14.05;;;9.63;;
23300;SDS011;11819;51.394;12.340;2023-08-06T06:03:43;9.15;;;7.05;;
23300;SDS011;11819;51.394;12.340;2023-08-06T06:06:09;8.65;;;6.70;;
23300;SDS011;11819;51.394;12.340;2023-08-06T06:08:35;8.98;;;6.97;;
23300;SDS011;11819;51.394;12.340;2023-08-06T06:11:00;8.40;;;6.82;;
23300;SDS011;11819;51.394;12.340;2023-08-06T06:13:26;8.52;;;6.40;;
23300;SDS011;11819;51.394;12.340;2023-08-06T06:15:56;8.32;;;6.45;;
23300;SDS011;11819;51.394;12.340;2023-08-06T06:18:22;9.43;;;6.93;;
23300;SDS011;11819;51.394;12.340;2023-08-06T06:20:48;8.55;;;6.55;;
23300;SDS011;11819;51.394;12.340;2023-08-06T06:23:13;8.70;;;6.30;;
23300;SDS011;11819;51.394;12.340;2023-08-06T06:25:43;7.90;;;6.05;;
23300;SDS011;11819;51.394;12.340;2023-08-06T06:28:11;7.82;;;5.60;;
23300;SDS011;11819;51.394;12.340;2023-08-06T06:30:37;7.38;;;5.50;;
23300;SDS011;11819;51.394;12.340;2023-08-06T06:33:03;8.07;;;5.90;;
23300;SDS011;11819;51.394;12.340;2023-08-06T06:35:28;8.20;;;5.47;;
23300;SDS011;11819;51.394;12.340;2023-08-06T06:37:54;10.35;;;6.22;;
23300;SDS011;11819;51.394;12.340;2023-08-06T06:40:20;10.32;;;7.00;;
23300;SDS011;11819;51.394;12.340;2023-08-06T06:42:45;9.02;;;6.65;;
23300;SDS011;11819;51.394;12.340;2023-08-06T06:45:13;8.93;;;6.45;;
23300;SDS011;11819;51.394;12.340;2023-08-06T06:47:38;8.35;;;6.30;;
23300;SDS011;11819;51.394;12.340;2023-08-06T06:50:04;7.70;;;5.57;;
23300;SDS011;11819;51.394;12.340;2023-08-06T06:52:30;8.85;;;6.18;;
23300;SDS011;11819;51.394;12.340;2023-08-06T06:54:56;10.30;;;5.45;;
23300;SDS011;11819;51.394;12.340;2023-08-06T06:57:22;7.45;;;5.03;;
23300;SDS011;11819;51.394;12.340;2023-08-06T06:59:47;9.55;;;5.45;;
23300;SDS011;11819;51.394;12.340;2023-08-06T07:02:13;7.78;;;5.32;;
23300;SDS011;11819;51.394;12.340;2023-08-06T07:04:38;7.22;;;4.75;;
23300;SDS011;11819;51.394;12.340;2023-08-06T07:07:04;8.48;;;5.20;;
23300;SDS011;11819;51.394;12.340;2023-08-06T07:09:30;6.40;;;4.93;;
23300;SDS011;11819;51.394;12.340;2023-08-06T07:11:55;6.55;;;4.65;;
23300;SDS011;11819;51.394;12.340;2023-08-06T07:14:21;6.75;;;4.40;;
23300;SDS011;11819;51.394;12.340;2023-08-06T07:16:46;8.00;;;4.60;;
23300;SDS011;11819;51.394;12.340;2023-08-06T07:19:13;7.40;;;4.90;;
23300;SDS011;11819;51.394;12.340;2023-08-06T07:21:39;6.18;;;4.20;;
23300;SDS011;11819;51.394;12.340;2023-08-06T07:24:04;6.55;;;4.20;;
23300;SDS011;11819;51.394;12.340;2023-08-06T07:26:30;7.38;;;4.82;;
23300;SDS011;11819;51.394;12.340;2023-08-06T07:28:56;5.80;;;4.25;;
23300;SDS011;11819;51.394;12.340;2023-08-06T07:31:21;7.28;;;3.95;;
23300;SDS011;11819;51.394;12.340;2023-08-06T07:33:47;5.28;;;3.75;;
23300;SDS011;11819;51.394;12.340;2023-08-06T07:36:14;5.25;;;3.75;;
23300;SDS011;11819;51.394;12.340;2023-08-06T07:38:40;5.20;;;4.13;;
23300;SDS011;11819;51.394;12.340;2023-08-06T07:41:06;5.40;;;4.00;;
23300;SDS011;11819;51.394;12.340;2023-08-06T07:43:32;5.13;;;3.45;;
23300;SDS011;11819;51.394;12.340;2023-08-06T07:45:58;5.50;;;3.78;;
23300;SDS011;11819;51.394;12.340;2023-08-06T07:48:27;6.22;;;3.90;;
23300;SDS011;11819;51.394;12.340;2023-08-06T07:50:53;5.18;;;3.47;;
23300;SDS011;11819;51.394;12.340;2023-08-06T07:53:20;5.78;;;3.65;;
23300;SDS011;11819;51.394;12.340;2023-08-06T07:55:53;5.40;;;3.78;;
23300;SDS011;11819;51.394;12.340;2023-08-06T07:58:20;5.18;;;3.78;;
23300;SDS011;11819;51.394;12.340;2023-08-06T08:00:46;5.63;;;3.63;;
23300;SDS011;11819;51.394;12.340;2023-08-06T08:03:12;5.60;;;3.83;;
23300;SDS011;11819;51.394;12.340;2023-08-06T08:05:41;5.05;;;3.75;;
23300;SDS011;11819;51.394;12.340;2023-08-06T08:08:07;6.03;;;4.15;;
23300;SDS011;11819;51.394;12.340;2023-08-06T08:10:33;6.10;;;4.10;;
23300;SDS011;11819;51.394;12.340;2023-08-06T08:13:00;6.00;;;4.00;;
23300;SDS011;11819;51.394;12.340;2023-08-06T08:15:28;5.57;;;3.83;;
23300;SDS011;11819;51.394;12.340;2023-08-06T08:17:54;5.60;;;3.97;;
23300;SDS011;11819;51.394;12.340;2023-08-06T08:20:20;4.60;;;3.38;;
23300;SDS011;11819;51.394;12.340;2023-08-06T08:22:46;6.10;;;3.30;;
23300;SDS011;11819;51.394;12.340;2023-08-06T08:25:12;5.95;;;3.63;;
23300;SDS011;11819;51.394;12.340;2023-08-06T08:27:38;4.35;;;3.30;;
23300;SDS011;11819;51.394;12.340;2023-08-06T08:30:04;5.95;;;3.65;;
23300;SDS011;11819;51.394;12.340;2023-08-06T08:32:30;5.97;;;3.90;;
23300;SDS011;11819;51.394;12.340;2023-08-06T08:34:56;3.75;;;2.92;;
23300;SDS011;11819;51.394;12.340;2023-08-06T08:37:22;4.80;;;3.13;;
23300;SDS011;11819;51.394;12.340;2023-08-06T08:39:48;5.78;;;3.50;;
23300;SDS011;11819;51.394;12.340;2023-08-06T08:42:14;5.40;;;3.45;;
23300;SDS011;11819;51.394;12.340;2023-08-06T08:44:40;5.00;;;3.45;;
23300;SDS011;11819;51.394;12.340;2023-08-06T08:47:07;4.47;;;3.33;;
23300;SDS011;11819;51.394;12.340;2023-08-06T08:49:34;7.10;;;3.35;;
23300;SDS011;11819;51.394;12.340;2023-08-06T08:52:00;4.47;;;3.30;;
23300;SDS011;11819;51.394;12.340;2023-08-06T08:54:27;4.75;;;3.50;;
23300;SDS011;11819;51.394;12.340;2023-08-06T08:56:56;5.00;;;3.50;;
23300;SDS011;11819;51.394;12.340;2023-08-06T08:59:23;5.50;;;3.75;;
23300;SDS011;11819;51.394;12.340;2023-08-06T09:01:48;6.05;;;3.80;;
23300;SDS011;11819;51.394;12.340;2023-08-06T09:04:18;5.28;;;3.45;;
23300;SDS011;11819;51.394;12.340;2023-08-06T09:06:46;5.13;;;3.20;;
23300;SDS011;11819;51.394;12.340;2023-08-06T09:09:36;4.60;;;3.45;;
23300;SDS011;11819;51.394;12.340;2023-08-06T09:12:05;5.57;;;3.80;;
23300;SDS011;11819;51.394;12.340;2023-08-06T09:14:37;5.78;;;3.58;;
23300;SDS011;11819;51.394;12.340;2023-08-06T09:17:03;5.55;;;3.88;;
23300;SDS011;11819;51.394;12.340;2023-08-06T09:19:31;5.60;;;3.80;;
23300;SDS011;11819;51.394;12.340;2023-08-06T09:21:59;7.43;;;3.58;;
23300;SDS011;11819;51.394;12.340;2023-08-06T09:24:24;5.57;;;4.28;;
23300;SDS011;11819;51.394;12.340;2023-08-06T09:26:51;6.43;;;3.78;;
23300;SDS011;11819;51.394;12.340;2023-08-06T09:29:19;4.78;;;3.55;;
23300;SDS011;11819;51.394;12.340;2023-08-06T09:31:45;5.80;;;4.13;;
23300;SDS011;11819;51.394;12.340;2023-08-06T09:34:19;5.75;;;4.03;;
23300;SDS011;11819;51.394;12.340;2023-08-06T09:36:50;6.22;;;3.97;;
23300;SDS011;11819;51.394;12.340;2023-08-06T09:39:17;5.22;;;4.05;;
23300;SDS011;11819;51.394;12.340;2023-08-06T09:41:44;6.18;;;3.92;;
23300;SDS011;11819;51.394;12.340;2023-08-06T09:44:17;6.20;;;3.97;;
23300;SDS011;11819;51.394;12.340;2023-08-06T09:46:51;5.18;;;3.70;;
23300;SDS011;11819;51.394;12.340;2023-08-06T09:49:18;6.45;;;4.20;;
23300;SDS011;11819;51.394;12.340;2023-08-06T09:51:48;5.85;;;4.05;;
23300;SDS011;11819;51.394;12.340;2023-08-06T09:54:17;5.38;;;3.90;;
23300;SDS011;11819;51.394;12.340;2023-08-06T09:56:46;4.63;;;3.50;;
23300;SDS011;11819;51.394;12.340;2023-08-06T09:59:12;5.10;;;3.67;;
23300;SDS011;11819;51.394;12.340;2023-08-06T10:01:38;6.00;;;4.20;;
23300;SDS011;11819;51.394;12.340;2023-08-06T10:04:05;5.95;;;4.00;;
23300;SDS011;11819;51.394;12.340;2023-08-06T10:06:35;5.53;;;3.38;;
23300;SDS011;11819;51.394;12.340;2023-08-06T10:09:02;4.82;;;3.50;;
23300;SDS011;11819;51.394;12.340;2023-08-06T10:11:30;5.47;;;3.42;;
23300;SDS011;11819;51.394;12.340;2023-08-06T10:14:02;4.22;;;3.15;;
23300;SDS011;11819;51.394;12.340;2023-08-06T10:16:31;5.25;;;3.72;;
23300;SDS011;11819;51.394;12.340;2023-08-06T10:18:58;4.97;;;3.60;;
23300;SDS011;11819;51.394;12.340;2023-08-06T10:21:26;4.57;;;3.08;;
23300;SDS011;11819;51.394;12.340;2023-08-06T10:23:55;3.90;;;2.90;;
23300;SDS011;11819;51.394;12.340;2023-08-06T10:26:25;4.97;;;3.15;;
23300;SDS011;11819;51.394;12.340;2023-08-06T10:28:52;4.50;;;3.40;;
23300;SDS011;11819;51.394;12.340;2023-08-06T10:31:19;5.10;;;3.30;;
23300;SDS011;11819;51.394;12.340;2023-08-06T10:33:45;5.22;;;3.40;;
23300;SDS011;11819;51.394;12.340;2023-08-06T10:36:12;5.78;;;3.80;;
23300;SDS011;11819;51.394;12.340;2023-08-06T10:38:45;4.60;;;3.38;;
23300;SDS011;11819;51.394;12.340;2023-08-06T10:41:15;6.25;;;3.58;;
23300;SDS011;11819;51.394;12.340;2023-08-06T10:43:47;5.25;;;3.65;;
23300;SDS011;11819;51.394;12.340;2023-08-06T10:46:21;5.65;;;3.58;;
23300;SDS011;11819;51.394;12.340;2023-08-06T10:48:50;5.47;;;3.80;;
23300;SDS011;11819;51.394;12.340;2023-08-06T10:51:17;4.50;;;3.10;;
23300;SDS011;11819;51.394;12.340;2023-08-06T10:53:43;5.25;;;3.38;;
23300;SDS011;11819;51.394;12.340;2023-08-06T10:56:16;4.60;;;2.92;;
23300;SDS011;11819;51.394;12.340;2023-08-06T10:58:47;5.55;;;2.95;;
23300;SDS011;11819;51.394;12.340;2023-08-06T11:01:14;4.57;;;3.08;;
23300;SDS011;11819;51.394;12.340;2023-08-06T11:03:41;4.38;;;2.85;;
23300;SDS011;11819;51.394;12.340;2023-08-06T11:06:07;3.60;;;2.83;;
23300;SDS011;11819;51.394;12.340;2023-08-06T11:08:47;4.75;;;3.28;;
23300;SDS011;11819;51.394;12.340;2023-08-06T11:11:17;5.00;;;3.15;;
23300;SDS011;11819;51.394;12.340;2023-08-06T11:13:48;3.60;;;3.05;;
23300;SDS011;11819;51.394;12.340;2023-08-06T11:16:16;4.75;;;2.97;;
23300;SDS011;11819;51.394;12.340;2023-08-06T11:18:45;3.80;;;2.92;;
23300;SDS011;11819;51.394;12.340;2023-08-06T11:21:12;4.18;;;3.17;;
23300;SDS011;11819;51.394;12.340;2023-08-06T11:23:38;6.85;;;3.10;;
23300;SDS011;11819;51.394;12.340;2023-08-06T11:26:05;3.95;;;2.85;;
23300;SDS011;11819;51.394;12.340;2023-08-06T11:28:31;4.70;;;3.40;;
23300;SDS011;11819;51.394;12.340;2023-08-06T11:30:58;4.60;;;3.47;;
23300;SDS011;11819;51.394;12.340;2023-08-06T11:33:27;4.63;;;3.60;;
23300;SDS011;11819;51.394;12.340;2023-08-06T11:35:56;4.35;;;3.20;;
23300;SDS011;11819;51.394;12.340;2023-08-06T11:38:27;5.22;;;3.35;;
23300;SDS011;11819;51.394;12.340;2023-08-06T11:40:53;5.13;;;3.17;;
23300;SDS011;11819;51.394;12.340;2023-08-06T11:43:19;3.75;;;3.10;;
23300;SDS011;11819;51.394;12.340;2023-08-06T11:45:47;3.70;;;2.72;;
23300;SDS011;11819;51.394;12.340;2023-08-06T11:48:14;4.57;;;3.10;;
23300;SDS011;11819;51.394;12.340;2023-08-06T11:50:40;4.88;;;3.15;;
23300;SDS011;11819;51.394;12.340;2023-08-06T11:53:06;5.63;;;3.33;;
23300;SDS011;11819;51.394;12.340;2023-08-06T11:55:32;5.57;;;4.03;;
23300;SDS011;11819;51.394;12.340;2023-08-06T11:57:59;4.18;;;3.33;;
23300;SDS011;11819;51.394;12.340;2023-08-06T12:00:29;6.57;;;4.38;;
23300;SDS011;11819;51.394;12.340;2023-08-06T12:02:58;3.85;;;2.90;;
23300;SDS011;11819;51.394;12.340;2023-08-06T12:05:30;4.55;;;3.10;;
23300;SDS011;11819;51.394;12.340;2023-08-06T12:07:59;4.90;;;3.40;;
23300;SDS011;11819;51.394;12.340;2023-08-06T12:10:26;5.03;;;3.33;;
23300;SDS011;11819;51.394;12.340;2023-08-06T12:12:53;4.50;;;3.20;;
23300;SDS011;11819;51.394;12.340;2023-08-06T12:15:19;4.05;;;3.22;;
23300;SDS011;11819;51.394;12.340;2023-08-06T12:17:44;5.75;;;3.50;;
23300;SDS011;11819;51.394;12.340;2023-08-06T12:20:10;4.97;;;3.08;;
23300;SDS011;11819;51.394;12.340;2023-08-06T12:22:36;5.80;;;3.38;;
23300;SDS011;11819;51.394;12.340;2023-08-06T12:27:36;4.30;;;3.17;;
23300;SDS011;11819;51.394;12.340;2023-08-06T12:30:03;4.32;;;2.95;;
23300;SDS011;11819;51.394;12.340;2023-08-06T12:32:31;4.10;;;3.20;;
23300;SDS011;11819;51.394;12.340;2023-08-06T12:34:58;5.03;;;3.40;;
23300;SDS011;11819;51.394;12.340;2023-08-06T12:37:24;3.88;;;3.38;;
23300;SDS011;11819;51.394;12.340;2023-08-06T12:39:50;5.57;;;3.70;;
23300;SDS011;11819;51.394;12.340;2023-08-06T12:42:16;4.40;;;3.40;;
23300;SDS011;11819;51.394;12.340;2023-08-06T12:44:41;3.17;;;2.78;;
23300;SDS011;11819;51.394;12.340;2023-08-06T12:47:07;4.35;;;3.28;;
23300;SDS011;11819;51.394;12.340;2023-08-06T12:49:33;3.75;;;2.88;;
23300;SDS011;11819;51.394;12.340;2023-08-06T12:51:59;3.33;;;2.60;;
23300;SDS011;11819;51.394;12.340;2023-08-06T12:54:30;4.75;;;2.78;;
23300;SDS011;11819;51.394;12.340;2023-08-06T12:57:01;4.88;;;2.80;;
23300;SDS011;11819;51.394;12.340;2023-08-06T12:59:27;3.33;;;2.70;;
23300;SDS011;11819;51.394;12.340;2023-08-06T13:01:52;3.88;;;2.85;;
23300;SDS011;11819;51.394;12.340;2023-08-06T13:04:18;3.67;;;2.42;;
23300;SDS011;11819;51.394;12.340;2023-08-06T13:06:43;3.42;;;2.55;;
23300;SDS011;11819;51.394;12.340;2023-08-06T13:09:09;4.85;;;2.55;;
23300;SDS011;11819;51.394;12.340;2023-08-06T13:11:35;3.47;;;2.42;;
23300;SDS011;11819;51.394;12.340;2023-08-06T13:14:09;3.05;;;2.25;;
23300;SDS011;11819;51.394;12.340;2023-08-06T13:16:37;3.72;;;2.47;;
23300;SDS011;11819;51.394;12.340;2023-08-06T13:19:04;4.22;;;2.70;;
23300;SDS011;11819;51.394;12.340;2023-08-06T13:24:15;4.47;;;2.60;;
23300;SDS011;11819;51.394;12.340;2023-08-06T13:26:40;3.92;;;2.60;;
23300;SDS011;11819;51.394;12.340;2023-08-06T13:29:06;4.32;;;2.50;;
23300;SDS011;11819;51.394;12.340;2023-08-06T13:31:35;4.53;;;3.00;;
23300;SDS011;11819;51.394;12.340;2023-08-06T13:34:01;3.17;;;2.60;;
23300;SDS011;11819;51.394;12.340;2023-08-06T13:36:27;3.17;;;2.30;;
23300;SDS011;11819;51.394;12.340;2023-08-06T13:38:53;3.17;;;2.58;;
23300;SDS011;11819;51.394;12.340;2023-08-06T13:41:19;3.10;;;2.47;;
23300;SDS011;11819;51.394;12.340;2023-08-06T13:43:45;5.78;;;2.97;;
23300;SDS011;11819;51.394;12.340;2023-08-06T13:46:11;3.22;;;2.45;;
23300;SDS011;11819;51.394;12.340;2023-08-06T13:48:41;4.40;;;2.58;;
23300;SDS011;11819;51.394;12.340;2023-08-06T13:51:11;3.92;;;2.65;;
23300;SDS011;11819;51.394;12.340;2023-08-06T13:53:37;3.05;;;2.40;;
23300;SDS011;11819;51.394;12.340;2023-08-06T13:56:04;4.35;;;2.40;;
23300;SDS011;11819;51.394;12.340;2023-08-06T13:58:31;3.45;;;2.40;;
23300;SDS011;11819;51.394;12.340;2023-08-06T14:00:57;3.05;;;2.40;;
23300;SDS011;11819;51.394;12.340;2023-08-06T14:03:23;3.25;;;2.40;;
23300;SDS011;11819;51.394;12.340;2023-08-06T14:05:48;3.45;;;2.42;;
23300;SDS011;11819;51.394;12.340;2023-08-06T14:08:15;3.80;;;2.40;;
23300;SDS011;11819;51.394;12.340;2023-08-06T14:10:43;3.38;;;2.50;;
23300;SDS011;11819;51.394;12.340;2023-08-06T14:13:09;2.90;;;2.17;;
23300;SDS011;11819;51.394;12.340;2023-08-06T14:15:35;3.45;;;2.05;;
23300;SDS011;11819;51.394;12.340;2023-08-06T14:18:01;4.07;;;2.20;;
23300;SDS011;11819;51.394;12.340;2023-08-06T14:20:27;3.47;;;2.55;;
23300;SDS011;11819;51.394;12.340;2023-08-06T14:22:53;3.45;;;2.40;;
23300;SDS011;11819;51.394;12.340;2023-08-06T14:25:19;3.15;;;2.22;;
23300;SDS011;11819;51.394;12.340;2023-08-06T14:27:45;3.60;;;2.20;;
23300;SDS011;11819;51.394;12.340;2023-08-06T14:30:11;3.67;;;2.55;;
23300;SDS011;11819;51.394;12.340;2023-08-06T14:32:36;4.10;;;2.35;;
23300;SDS011;11819;51.394;12.340;2023-08-06T14:35:02;3.40;;;2.47;;
23300;SDS011;11819;51.394;12.340;2023-08-06T14:37:28;3.78;;;2.33;;